Time;durP1;ratioP1;P1;durP2;ratioP2;P2;SDS_P1;SDS_P2;PMS_P1;PMS_P2;Temp;Humidity;BMP_temperature;BMP_pressure;BME280_temperature;BME280_humidity;BME280_pressure;Samples;Min_cycle;Max_cycle;Signal;HPM_P1;HPM_P2
2021/11/18 00:01:55;;;;;;;11.80;8.02;;;6.60;31.80;;;;;;5101053;28;20043;-66
2021/11/18 00:04:23;;;;;;;12.90;8.98;;;6.60;32.60;;;;;;5097142;28;20040;-65
2021/11/18 00:06:52;;;;;;;10.23;7.93;;;6.60;33.00;;;;;;5099400;28;20047;-66
2021/11/18 00:09:24;;;;;;;12.57;8.65;;;6.60;33.80;;;;;;5101015;28;20706;-66
2021/11/18 00:11:56;;;;;;;10.55;7.57;;;6.60;34.10;;;;;;5104307;28;20553;-66
2021/11/18 00:14:24;;;;;;;10.45;7.47;;;6.60;34.70;;;;;;5103668;27;20040;-67
2021/11/18 00:16:53;;;;;;;11.95;8.27;;;6.60;35.20;;;;;;5103862;27;20116;-66
2021/11/18 00:19:26;;;;;;;10.95;8.13;;;6.60;35.30;;;;;;5106611;28;20453;-66
2021/11/18 00:21:54;;;;;;;12.93;8.40;;;6.50;36.60;;;;;;5100583;27;20116;-66
2021/11/18 00:24:23;;;;;;;13.85;9.63;;;6.50;38.00;;;;;;5105993;27;20471;-67
2021/11/18 00:26:54;;;;;;;12.65;8.27;;;6.50;39.40;;;;;;5103523;28;20146;-67
2021/11/18 00:29:25;;;;;;;13.32;9.02;;;6.50;40.70;;;;;;5104719;27;20059;-66
2021/11/18 00:31:53;;;;;;;11.93;8.75;;;6.50;40.60;;;;;;5103177;28;20054;-66
2021/11/18 00:34:24;;;;;;;12.13;8.70;;;6.40;41.60;;;;;;5104748;28;20109;-66
2021/11/18 00:36:54;;;;;;;13.10;9.18;;;6.40;43.30;;;;;;5100838;27;20138;-66
2021/11/18 00:39:23;;;;;;;13.00;9.38;;;6.50;43.40;;;;;;5102335;28;20101;-66
2021/11/18 00:41:52;;;;;;;15.00;9.85;;;6.40;43.30;;;;;;5096594;28;20052;-67
2021/11/18 00:44:21;;;;;;;14.55;10.40;;;6.40;44.10;;;;;;5097805;27;20044;-66
2021/11/18 00:46:51;;;;;;;14.18;10.13;;;6.30;43.40;;;;;;5082974;28;20036;-66
2021/11/18 00:49:19;;;;;;;17.90;10.80;;;6.40;44.90;;;;;;5076381;28;20048;-67
2021/11/18 00:51:48;;;;;;;15.13;10.40;;;6.40;44.40;;;;;;5093587;27;20056;-66
2021/11/18 00:54:21;;;;;;;14.70;10.65;;;6.40;44.90;;;;;;5099944;28;20043;-66
2021/11/18 00:56:49;;;;;;;16.67;10.55;;;6.50;45.90;;;;;;5099333;27;20134;-66
2021/11/18 00:59:18;;;;;;;15.63;10.75;;;6.40;44.40;;;;;;5097767;28;20060;-66
2021/11/18 01:01:52;;;;;;;15.68;11.30;;;6.40;44.40;;;;;;5101625;27;20365;-66
2021/11/18 01:04:27;;;;;;;17.48;12.02;;;6.50;45.20;;;;;;5095275;28;20043;-67
2021/11/18 01:06:58;;;;;;;14.27;10.32;;;6.50;44.80;;;;;;5099229;28;20039;-66
2021/11/18 01:09:30;;;;;;;17.63;11.18;;;6.50;43.80;;;;;;5099340;28;20067;-67
2021/11/18 01:12:02;;;;;;;14.25;10.82;;;6.40;43.40;;;;;;5092862;27;20605;-66
2021/11/18 01:14:30;;;;;;;13.52;10.18;;;6.40;43.60;;;;;;5092353;28;20039;-67
2021/11/18 01:17:00;;;;;;;15.60;10.88;;;6.50;44.70;;;;;;5095154;28;20194;-68
2021/11/18 01:19:29;;;;;;;16.65;11.35;;;6.50;43.50;;;;;;5095421;27;20186;-66
2021/11/18 01:22:06;;;;;;;14.23;10.25;;;6.40;44.00;;;;;;5099430;28;20524;-65
2021/11/18 01:24:37;;;;;;;14.23;10.65;;;6.40;44.90;;;;;;5084611;28;20520;-66
2021/11/18 01:27:08;;;;;;;15.47;10.97;;;6.40;45.40;;;;;;5097435;27;20044;-66
2021/11/18 01:29:39;;;;;;;17.55;10.95;;;6.40;45.80;;;;;;5099536;28;20051;-66
2021/11/18 01:32:12;;;;;;;15.35;10.48;;;6.30;45.80;;;;;;5096128;27;20131;-66
2021/11/18 01:34:43;;;;;;;17.08;10.93;;;6.30;46.60;;;;;;5099284;27;20456;-66
2021/11/18 01:37:12;;;;;;;15.18;10.30;;;6.30;46.90;;;;;;5101780;27;20035;-67
2021/11/18 01:39:43;;;;;;;15.68;10.82;;;6.40;47.50;;;;;;5102309;28;20491;-67
2021/11/18 01:42:13;;;;;;;17.52;11.13;;;6.40;47.50;;;;;;5105150;27;20566;-67
2021/11/18 01:44:46;;;;;;;15.10;10.85;;;6.40;47.70;;;;;;5100085;28;20478;-67
2021/11/18 01:47:18;;;;;;;15.13;10.20;;;6.40;47.20;;;;;;5102635;28;20162;-67
2021/11/18 01:49:48;;;;;;;18.40;10.95;;;6.40;47.40;;;;;;5107730;27;20043;-67
2021/11/18 01:52:20;;;;;;;15.23;11.57;;;6.40;47.00;;;;;;5092685;28;20040;-66
2021/11/18 01:54:48;;;;;;;13.85;10.50;;;6.30;47.30;;;;;;5100704;27;20044;-66
2021/11/18 01:57:26;;;;;;;15.82;11.18;;;6.30;47.10;;;;;;5102619;28;20039;-67
2021/11/18 01:59:55;;;;;;;15.57;10.63;;;6.30;47.40;;;;;;5102968;27;20569;-67
2021/11/18 02:02:27;;;;;;;17.17;9.85;;;6.40;47.70;;;;;;5100940;28;20587;-67
2021/11/18 02:05:17;;;;;;;14.38;10.88;;;6.40;47.20;;;;;;5103348;28;20493;-67
2021/11/18 02:07:51;;;;;;;16.30;10.77;;;6.30;47.40;;;;;;5104663;27;20059;-69
2021/11/18 02:10:29;;;;;;;16.63;10.77;;;6.40;47.70;;;;;;5097710;28;20070;-68
2021/11/18 02:13:04;;;;;;;16.08;10.07;;;6.40;47.50;;;;;;5099018;28;20515;-67
2021/11/18 02:15:36;;;;;;;14.02;10.23;;;6.30;47.60;;;;;;5105477;27;20094;-67
2021/11/18 02:18:14;;;;;;;14.20;9.95;;;6.30;47.80;;;;;;5101230;28;20043;-67
2021/11/18 02:20:50;;;;;;;15.23;10.57;;;6.30;47.70;;;;;;5103268;27;20031;-67
2021/11/18 02:23:20;;;;;;;15.60;10.85;;;6.30;47.90;;;;;;5101062;28;20048;-67
2021/11/18 02:25:51;;;;;;;15.50;10.65;;;6.30;48.10;;;;;;5103256;27;20043;-67
2021/11/18 02:28:21;;;;;;;16.88;10.95;;;6.40;48.00;;;;;;5102271;28;20120;-67
2021/11/18 02:30:52;;;;;;;15.02;10.00;;;6.40;48.50;;;;;;5104501;28;20100;-67
2021/11/18 02:33:22;;;;;;;17.15;10.68;;;6.40;47.70;;;;;;5098405;28;20486;-67
2021/11/18 02:35:57;;;;;;;14.27;9.68;;;6.40;48.30;;;;;;5101682;27;20048;-67
2021/11/18 02:38:26;;;;;;;16.10;9.90;;;6.40;48.10;;;;;;5102269;28;20062;-67
2021/11/18 02:40:56;;;;;;;14.07;9.57;;;6.50;47.90;;;;;;5104283;27;20515;-67
2021/11/18 02:43:31;;;;;;;14.13;10.50;;;6.40;47.30;;;;;;5102531;28;20514;-68
2021/11/18 02:45:59;;;;;;;11.55;8.85;;;6.40;47.30;;;;;;5103453;27;20049;-67
2021/11/18 02:48:28;;;;;;;11.73;9.00;;;6.50;47.30;;;;;;5098334;27;20075;-66
2021/11/18 02:51:00;;;;;;;12.48;9.32;;;6.50;47.30;;;;;;5105492;27;20078;-67
2021/11/18 02:53:30;;;;;;;12.25;9.27;;;6.40;47.00;;;;;;5097658;27;20430;-67
2021/11/18 02:55:59;;;;;;;13.40;8.93;;;6.50;47.50;;;;;;5081089;28;20471;-67
2021/11/18 02:58:28;;;;;;;14.20;9.48;;;6.50;47.20;;;;;;5105841;28;20046;-68
2021/11/18 03:01:01;;;;;;;11.60;9.15;;;6.50;45.80;;;;;;5105388;27;20517;-66
2021/11/18 03:03:29;;;;;;;11.70;9.02;;;6.50;45.70;;;;;;5097150;27;20526;-66
2021/11/18 03:06:04;;;;;;;16.35;9.98;;;6.40;44.90;;;;;;5102237;27;20040;-67
2021/11/18 03:08:32;;;;;;;13.75;8.93;;;6.50;45.40;;;;;;5102473;27;20108;-67
2021/11/18 03:11:01;;;;;;;12.32;8.95;;;6.50;44.70;;;;;;5104444;27;20043;-67
2021/11/18 03:13:31;;;;;;;12.05;8.57;;;6.50;45.10;;;;;;5094373;28;20051;-67
2021/11/18 03:16:04;;;;;;;13.48;9.10;;;6.50;45.10;;;;;;5094810;28;20036;-67
2021/11/18 03:18:33;;;;;;;13.32;8.80;;;6.50;46.60;;;;;;5099316;28;20043;-67
2021/11/18 03:21:06;;;;;;;13.60;9.40;;;6.60;46.70;;;;;;5101607;28;20047;-68
2021/11/18 03:23:35;;;;;;;12.20;9.10;;;6.50;46.50;;;;;;5099998;27;20077;-68
2021/11/18 03:26:05;;;;;;;14.73;9.57;;;6.60;47.40;;;;;;5102126;28;20565;-68
2021/11/18 03:28:36;;;;;;;12.57;9.38;;;6.60;47.60;;;;;;5100519;28;20514;-68
2021/11/18 03:31:06;;;;;;;13.38;9.02;;;6.60;47.30;;;;;;5101933;28;20084;-65
2021/11/18 03:33:37;;;;;;;14.02;9.45;;;6.50;47.40;;;;;;5101860;27;20073;-66
2021/11/18 03:36:08;;;;;;;15.93;10.77;;;6.50;47.00;;;;;;5103522;27;20058;-66
2021/11/18 03:38:37;;;;;;;14.45;9.50;;;6.50;48.00;;;;;;5100486;28;20131;-66
2021/11/18 03:41:07;;;;;;;14.35;10.25;;;6.50;47.80;;;;;;5103141;28;20040;-66
2021/11/18 03:43:37;;;;;;;13.32;9.75;;;6.40;47.80;;;;;;5102021;28;20218;-66
2021/11/18 03:46:10;;;;;;;17.73;10.57;;;6.50;48.80;;;;;;5101383;28;20511;-66
2021/11/18 03:48:39;;;;;;;13.95;9.77;;;6.50;49.50;;;;;;5099520;28;20043;-67
2021/11/18 03:51:10;;;;;;;17.40;10.48;;;6.40;49.40;;;;;;5103382;28;20098;-67
2021/11/18 03:53:39;;;;;;;12.57;9.38;;;6.40;49.80;;;;;;5099361;28;20113;-68
2021/11/18 03:56:09;;;;;;;13.90;9.90;;;6.40;49.50;;;;;;5101766;28;20046;-67
2021/11/18 03:58:37;;;;;;;15.43;9.75;;;6.30;48.80;;;;;;5105258;28;20114;-67
2021/11/18 04:01:10;;;;;;;14.65;9.90;;;6.40;49.00;;;;;;5100518;28;20047;-66
2021/11/18 04:03:38;;;;;;;12.00;8.55;;;6.40;48.60;;;;;;5098505;28;20099;-66
2021/11/18 04:06:11;;;;;;;15.10;10.15;;;6.30;47.70;;;;;;5103451;28;20043;-66
2021/11/18 04:08:39;;;;;;;13.98;9.95;;;6.40;48.60;;;;;;5101075;28;20456;-66
2021/11/18 04:11:09;;;;;;;14.75;10.13;;;6.40;48.10;;;;;;5102906;28;20047;-66
2021/11/18 04:13:37;;;;;;;17.63;10.75;;;6.40;47.70;;;;;;5102800;28;20062;-67
2021/11/18 04:16:06;;;;;;;17.17;11.30;;;6.40;47.60;;;;;;5101682;28;20070;-67
2021/11/18 04:18:36;;;;;;;19.40;11.15;;;6.40;47.70;;;;;;5099716;28;20032;-66
2021/11/18 04:21:04;;;;;;;15.30;10.27;;;6.30;47.40;;;;;;5105829;28;20048;-66
2021/11/18 04:23:34;;;;;;;17.15;10.85;;;6.30;47.70;;;;;;5097038;28;20064;-66
2021/11/18 04:26:04;;;;;;;17.45;11.52;;;6.40;48.00;;;;;;5104123;28;20469;-66
2021/11/18 04:28:33;;;;;;;18.15;10.68;;;6.40;47.70;;;;;;5100794;28;20044;-66
2021/11/18 04:31:07;;;;;;;17.98;10.27;;;6.40;47.80;;;;;;5104623;28;20074;-66
2021/11/18 04:33:37;;;;;;;19.85;10.70;;;6.40;47.60;;;;;;5099270;28;20203;-66
2021/11/18 04:36:09;;;;;;;18.35;10.57;;;6.50;47.70;;;;;;5099290;28;20510;-66
2021/11/18 04:38:39;;;;;;;19.98;11.52;;;6.30;47.80;;;;;;5104472;28;20047;-66
2021/11/18 04:41:08;;;;;;;19.17;10.98;;;6.40;48.10;;;;;;5104500;28;20041;-66
2021/11/18 04:43:37;;;;;;;17.35;10.88;;;6.40;48.10;;;;;;5100710;28;20452;-66
2021/11/18 04:46:10;;;;;;;16.77;9.75;;;6.40;48.10;;;;;;5103567;28;20244;-66
2021/11/18 04:48:41;;;;;;;15.93;9.93;;;6.30;47.90;;;;;;5101259;28;20534;-66
2021/11/18 04:51:14;;;;;;;17.80;10.02;;;6.30;48.90;;;;;;5103808;28;20039;-66
2021/11/18 04:53:44;;;;;;;19.67;10.27;;;6.40;48.10;;;;;;5099588;28;20044;-66
2021/11/18 04:56:12;;;;;;;18.00;9.48;;;6.40;47.50;;;;;;5101263;28;20566;-66
2021/11/18 04:58:42;;;;;;;16.63;9.80;;;6.40;47.40;;;;;;5102048;28;20122;-66
2021/11/18 05:01:13;;;;;;;16.83;10.25;;;6.30;47.20;;;;;;5107835;28;20131;-66
2021/11/18 05:03:43;;;;;;;16.90;10.18;;;6.30;47.40;;;;;;5103163;28;20044;-67
2021/11/18 05:06:13;;;;;;;14.38;9.32;;;6.30;47.10;;;;;;5103648;28;20036;-67
2021/11/18 05:08:43;;;;;;;15.52;10.40;;;6.30;47.40;;;;;;5104143;28;20047;-66
2021/11/18 05:11:12;;;;;;;21.25;11.40;;;6.30;47.90;;;;;;5101918;27;20051;-65
2021/11/18 05:13:41;;;;;;;18.08;10.10;;;6.30;47.90;;;;;;5104348;28;20125;-66
2021/11/18 05:16:12;;;;;;;16.33;10.75;;;6.30;47.90;;;;;;5102809;27;20119;-66
2021/11/18 05:18:40;;;;;;;21.25;11.75;;;6.30;47.50;;;;;;5100844;28;20047;-66
2021/11/18 05:21:15;;;;;;;19.38;10.90;;;6.30;47.70;;;;;;5107196;28;20044;-65
2021/11/18 05:23:45;;;;;;;20.90;10.73;;;6.40;47.90;;;;;;5102474;28;20044;-66
2021/11/18 05:26:16;;;;;;;21.38;11.70;;;6.30;47.70;;;;;;5104976;27;21009;-68
2021/11/18 05:28:47;;;;;;;18.73;11.27;;;6.40;47.10;;;;;;5103748;28;20039;-66
2021/11/18 05:31:19;;;;;;;19.33;10.80;;;6.30;47.30;;;;;;5104825;28;20536;-66
2021/11/18 05:33:49;;;;;;;19.38;11.10;;;6.30;47.40;;;;;;5103303;27;20402;-66
2021/11/18 05:36:19;;;;;;;17.55;10.25;;;6.40;47.90;;;;;;5103158;28;20389;-66
2021/11/18 05:38:49;;;;;;;20.83;10.77;;;6.40;47.50;;;;;;5101587;27;20059;-66
2021/11/18 05:41:18;;;;;;;20.90;11.63;;;6.40;47.50;;;;;;5105347;27;20483;-65
2021/11/18 05:43:47;;;;;;;22.13;11.48;;;6.40;47.40;;;;;;5099855;28;20040;-66
2021/11/18 05:46:18;;;;;;;23.55;12.35;;;6.40;47.50;;;;;;5100648;28;20044;-66
2021/11/18 05:48:48;;;;;;;22.83;15.25;;;6.50;47.20;;;;;;5105282;28;20120;-66
2021/11/18 05:51:17;;;;;;;20.83;12.93;;;6.40;46.30;;;;;;5104626;27;20059;-67
2021/11/18 05:53:49;;;;;;;20.98;11.75;;;6.50;47.30;;;;;;5102938;28;20333;-67
2021/11/18 05:56:22;;;;;;;21.15;12.10;;;6.40;46.80;;;;;;5106471;28;20687;-66
2021/11/18 05:58:53;;;;;;;20.80;12.35;;;6.50;46.80;;;;;;5099978;27;20399;-66
2021/11/18 06:01:24;;;;;;;21.40;12.43;;;6.50;47.10;;;;;;5102521;28;20575;-66
2021/11/18 06:03:52;;;;;;;22.65;11.70;;;6.50;47.00;;;;;;5104115;28;20047;-66
2021/11/18 06:06:26;;;;;;;20.90;11.68;;;6.50;47.20;;;;;;5104054;27;20129;-65
2021/11/18 06:09:02;;;;;;;19.50;11.60;;;6.40;46.60;;;;;;5101392;28;20559;-66
2021/11/18 06:11:30;;;;;;;22.00;11.85;;;6.40;46.80;;;;;;5104621;27;20094;-66
2021/11/18 06:13:59;;;;;;;22.02;12.68;;;6.40;46.90;;;;;;5103141;27;20042;-66
2021/11/18 06:16:27;;;;;;;21.35;12.13;;;6.40;46.40;;;;;;5104035;28;20160;-67
2021/11/18 06:19:01;;;;;;;20.55;11.85;;;6.50;47.30;;;;;;5102872;28;20145;-66
2021/11/18 06:21:30;;;;;;;22.35;12.88;;;6.50;47.00;;;;;;5102308;27;20035;-66
2021/11/18 06:24:01;;;;;;;21.20;12.57;;;6.50;46.90;;;;;;5099548;28;20047;-66
2021/11/18 06:26:30;;;;;;;18.77;11.70;;;6.50;45.50;;;;;;5101694;27;20154;-66
2021/11/18 06:28:59;;;;;;;17.70;11.65;;;6.40;45.30;;;;;;5102022;28;20071;-66
2021/11/18 06:31:27;;;;;;;20.02;12.27;;;6.40;45.70;;;;;;5101853;27;20039;-66
2021/11/18 06:33:58;;;;;;;21.33;12.90;;;6.40;46.00;;;;;;5102722;28;20043;-66
2021/11/18 06:36:28;;;;;;;21.98;12.25;;;6.50;46.90;;;;;;5101791;27;20039;-65
2021/11/18 06:38:56;;;;;;;25.75;12.48;;;6.50;46.10;;;;;;5102095;28;20086;-67
2021/11/18 06:41:30;;;;;;;27.67;14.40;;;6.50;46.50;;;;;;5104170;27;20050;-66
2021/11/18 06:44:00;;;;;;;23.92;12.50;;;6.60;47.30;;;;;;5101454;28;20040;-66
2021/11/18 06:46:31;;;;;;;23.17;13.45;;;6.60;47.40;;;;;;5103256;27;20044;-65
2021/11/18 06:49:01;;;;;;;20.35;11.93;;;6.60;47.20;;;;;;5102869;28;20082;-66
2021/11/18 06:51:29;;;;;;;24.00;12.38;;;6.60;46.70;;;;;;5099275;28;20150;-65
2021/11/18 06:53:59;;;;;;;23.00;13.35;;;6.60;46.80;;;;;;5102079;27;20130;-66
2021/11/18 06:56:29;;;;;;;23.27;13.00;;;6.60;46.30;;;;;;5100556;27;20215;-66
2021/11/18 06:58:57;;;;;;;26.15;13.45;;;6.50;46.30;;;;;;5102865;27;20043;-66
2021/11/18 07:01:27;;;;;;;24.35;12.00;;;6.50;46.60;;;;;;5103634;28;20035;-66
2021/11/18 07:03:56;;;;;;;24.25;13.38;;;6.60;47.00;;;;;;5099972;28;20116;-66
2021/11/18 07:06:25;;;;;;;25.13;14.27;;;6.60;47.00;;;;;;5099387;28;20449;-66
2021/11/18 07:08:54;;;;;;;22.95;13.00;;;6.70;46.90;;;;;;5101911;28;20055;-66
2021/11/18 07:11:25;;;;;;;27.02;14.00;;;6.70;45.70;;;;;;5101879;28;20036;-66
2021/11/18 07:13:55;;;;;;;22.15;12.27;;;6.70;44.20;;;;;;5103600;28;20445;-66
2021/11/18 07:16:25;;;;;;;24.08;12.93;;;6.60;43.50;;;;;;5101411;28;20048;-67
2021/11/18 07:18:54;;;;;;;24.50;13.55;;;6.60;44.50;;;;;;5105847;28;20050;-67
2021/11/18 07:21:26;;;;;;;26.45;13.90;;;6.70;45.20;;;;;;5101221;28;20040;-66
2021/11/18 07:23:56;;;;;;;27.60;14.70;;;6.80;45.70;;;;;;5102131;28;20047;-67
2021/11/18 07:26:27;;;;;;;27.35;14.75;;;6.80;44.50;;;;;;5103514;28;20047;-67
2021/11/18 07:28:57;;;;;;;25.65;13.85;;;6.70;43.70;;;;;;5103725;27;20046;-66
2021/11/18 07:31:30;;;;;;;26.67;14.40;;;6.80;45.20;;;;;;5103868;28;20064;-66
2021/11/18 07:34:05;;;;;;;26.63;15.33;;;6.80;43.70;;;;;;5100270;27;20047;-66
2021/11/18 07:36:36;;;;;;;24.85;14.45;;;6.90;45.00;;;;;;5103377;28;20134;-66
2021/11/18 07:39:08;;;;;;;23.58;13.05;;;6.90;43.80;;;;;;5105162;28;20048;-66
2021/11/18 07:41:44;;;;;;;23.73;13.23;;;6.80;43.70;;;;;;5102724;28;20379;-68
2021/11/18 07:44:17;;;;;;;22.13;13.38;;;6.70;43.50;;;;;;5098266;28;20135;-66
2021/11/18 07:47:00;;;;;;;28.23;14.40;;;6.80;43.70;;;;;;5103754;28;20481;-66
2021/11/18 07:49:29;;;;;;;22.13;13.27;;;6.80;43.70;;;;;;5099624;28;20498;-64
2021/11/18 07:51:58;;;;;;;20.65;13.50;;;6.70;43.60;;;;;;5103124;28;20046;-67
2021/11/18 07:54:28;;;;;;;24.25;13.52;;;6.80;43.70;;;;;;5102226;28;20051;-66
2021/11/18 07:56:58;;;;;;;22.45;12.75;;;6.80;43.80;;;;;;5102298;28;20741;-66
2021/11/18 07:59:28;;;;;;;18.40;12.30;;;6.70;42.00;;;;;;5115958;28;20036;-66
2021/11/18 08:02:02;;;;;;;21.35;12.30;;;6.80;43.30;;;;;;5102974;28;20066;-66
2021/11/18 08:04:31;;;;;;;21.02;12.30;;;6.80;42.70;;;;;;5100800;28;20046;-66
2021/11/18 08:07:06;;;;;;;23.90;13.48;;;6.90;43.10;;;;;;5101045;28;20376;-66
2021/11/18 08:09:35;;;;;;;21.88;12.38;;;6.90;43.70;;;;;;5079801;28;20166;-66
2021/11/18 08:12:05;;;;;;;24.45;11.88;;;6.80;41.60;;;;;;5102452;28;20102;-66
2021/11/18 08:14:35;;;;;;;21.27;12.65;;;6.80;42.40;;;;;;5102385;28;20148;-66
2021/11/18 08:17:03;;;;;;;24.02;13.07;;;6.90;42.20;;;;;;5100174;28;20055;-66
2021/11/18 08:19:32;;;;;;;22.80;13.18;;;6.80;41.60;;;;;;5101590;28;20482;-66
2021/11/18 08:22:00;;;;;;;22.60;13.18;;;6.80;42.50;;;;;;5101950;28;20146;-66
2021/11/18 08:24:32;;;;;;;25.08;13.65;;;6.90;42.70;;;;;;5099211;28;20050;-66
2021/11/18 08:27:01;;;;;;;21.50;13.20;;;7.00;42.70;;;;;;5100083;28;20044;-66
2021/11/18 08:29:31;;;;;;;21.98;12.05;;;7.10;41.00;;;;;;5103263;28;20483;-66
2021/11/18 08:32:05;;;;;;;21.80;13.90;;;7.10;40.40;;;;;;5096556;28;20394;-65
2021/11/18 08:34:37;;;;;;;20.85;12.77;;;7.10;40.60;;;;;;5099454;27;20521;-66
2021/11/18 08:37:07;;;;;;;23.85;12.82;;;7.20;39.90;;;;;;5106278;28;20183;-66
2021/11/18 08:39:36;;;;;;;22.23;12.77;;;7.10;39.00;;;;;;5105238;27;20043;-66
2021/11/18 08:42:08;;;;;;;20.38;13.18;;;7.10;42.00;;;;;;5106179;27;20044;-66
2021/11/18 08:44:38;;;;;;;22.92;13.50;;;7.20;42.40;;;;;;5103000;27;20044;-66
2021/11/18 08:47:13;;;;;;;20.58;12.90;;;7.20;40.90;;;;;;5103843;28;20051;-66
2021/11/18 08:49:41;;;;;;;21.35;12.30;;;7.10;38.30;;;;;;5101150;27;20040;-66
2021/11/18 08:52:14;;;;;;;19.42;12.55;;;7.20;38.10;;;;;;5107175;27;20052;-66
2021/11/18 08:54:48;;;;;;;23.70;13.30;;;7.10;35.70;;;;;;5106176;27;20487;-66
2021/11/18 08:57:17;;;;;;;18.52;11.80;;;7.20;38.60;;;;;;5102062;28;20383;-66
2021/11/18 08:59:45;;;;;;;19.92;12.05;;;7.10;37.00;;;;;;5108493;27;20048;-67
2021/11/18 09:02:19;;;;;;;17.27;10.85;;;7.20;37.20;;;;;;5104357;28;20076;-66
2021/11/18 09:04:49;;;;;;;19.17;11.73;;;7.10;33.50;;;;;;5099733;27;20056;-65
2021/11/18 09:07:19;;;;;;;19.30;11.50;;;7.20;35.10;;;;;;5105871;28;20139;-66
2021/11/18 09:09:47;;;;;;;20.42;12.27;;;7.30;34.60;;;;;;5106170;27;20085;-67
2021/11/18 09:12:18;;;;;;;24.23;12.52;;;7.30;35.80;;;;;;5103857;27;20154;-66
2021/11/18 09:14:46;;;;;;;20.38;12.00;;;7.20;36.60;;;;;;5102159;28;20047;-66
2021/11/18 09:17:19;;;;;;;18.83;11.13;;;7.30;36.10;;;;;;5099154;27;20040;-66
2021/11/18 09:19:56;;;;;;;17.00;10.55;;;7.30;32.90;;;;;;5106246;28;20143;-66
2021/11/18 09:22:24;;;;;;;19.63;10.70;;;7.40;33.90;;;;;;5103005;28;20047;-65
2021/11/18 09:24:59;;;;;;;16.98;11.75;;;7.50;34.70;;;;;;5103947;28;20040;-66
2021/11/18 09:27:33;;;;;;;17.73;10.90;;;7.50;33.60;;;;;;5107466;28;20043;-66
2021/11/18 09:30:04;;;;;;;17.13;10.13;;;7.60;33.50;;;;;;5106135;28;20134;-66
2021/11/18 09:32:37;;;;;;;22.58;12.52;;;7.40;33.00;;;;;;5103190;27;20035;-66
2021/11/18 09:35:10;;;;;;;15.93;10.45;;;7.50;34.00;;;;;;5100863;28;20043;-67
2021/11/18 09:37:38;;;;;;;16.80;10.93;;;7.50;33.00;;;;;;5096701;27;20427;-67
2021/11/18 09:40:15;;;;;;;17.92;10.45;;;7.60;32.20;;;;;;5099773;27;20451;-67
2021/11/18 09:43:06;;;;;;;17.40;11.18;;;7.60;30.70;;;;;;5105508;28;20051;-66
2021/11/18 09:45:44;;;;;;;15.55;11.20;;;7.70;33.10;;;;;;5095663;27;20066;-67
2021/11/18 09:48:38;;;;;;;16.17;10.60;;;7.70;31.20;;;;;;5104470;27;20151;-66
2021/11/18 09:51:41;;;;;;;18.27;11.13;;;7.80;32.50;;;;;;5102911;28;20043;-65
2021/11/18 09:54:49;;;;;;;19.95;11.50;;;7.90;32.00;;;;;;5102460;27;20052;-67
2021/11/18 09:57:30;;;;;;;21.02;12.63;;;7.90;32.30;;;;;;5096776;27;20063;-66
2021/11/18 10:00:07;;;;;;;20.15;11.90;;;7.90;32.40;;;;;;5104624;28;20047;-66
2021/11/18 10:03:02;;;;;;;22.08;12.70;;;8.00;30.40;;;;;;5102683;27;20538;-66
2021/11/18 10:05:36;;;;;;;22.67;12.32;;;7.80;31.30;;;;;;5105258;28;20047;-66
2021/11/18 10:08:10;;;;;;;21.75;13.25;;;7.90;32.30;;;;;;5101966;28;20036;-66
2021/11/18 10:10:43;;;;;;;24.52;14.48;;;7.90;31.30;;;;;;5103876;27;20036;-66
2021/11/18 10:13:44;;;;;;;22.05;14.45;;;7.90;33.00;;;;;;5101365;28;20454;-66
2021/11/18 10:16:18;;;;;;;21.48;13.50;;;8.00;33.20;;;;;;5105952;28;20495;-66
2021/11/18 10:18:48;;;;;;;25.13;13.90;;;7.90;31.70;;;;;;5101355;28;20057;-66
2021/11/18 10:21:21;;;;;;;24.77;15.70;;;7.90;32.00;;;;;;5106478;27;20043;-67
2021/11/18 10:23:52;;;;;;;27.38;15.95;;;8.00;32.40;;;;;;5101708;27;20043;-67
2021/11/18 10:26:27;;;;;;;26.30;14.02;;;8.20;33.10;;;;;;5106072;28;20096;-66
2021/11/18 10:29:11;;;;;;;25.83;15.43;;;8.20;30.00;;;;;;5101194;27;20101;-66
2021/11/18 10:31:49;;;;;;;23.05;14.05;;;8.30;32.00;;;;;;5107785;27;20043;-67
2021/11/18 10:34:28;;;;;;;22.50;14.63;;;8.30;28.50;;;;;;5104169;27;20040;-67
2021/11/18 10:37:11;;;;;;;21.30;13.57;;;8.30;29.50;;;;;;5100650;27;20043;-66
2021/11/18 10:39:56;;;;;;;21.05;13.23;;;8.30;29.20;;;;;;5099036;28;20032;-66
2021/11/18 10:42:33;;;;;;;23.65;14.43;;;8.20;27.40;;;;;;5104372;28;20085;-67
2021/11/18 10:45:09;;;;;;;24.67;14.68;;;8.20;28.50;;;;;;5101272;28;20048;-67
2021/11/18 10:47:45;;;;;;;19.80;13.27;;;8.40;29.10;;;;;;5103772;27;20541;-66
2021/11/18 10:50:28;;;;;;;21.17;13.35;;;8.30;26.10;;;;;;5105157;27;20462;-66
2021/11/18 10:53:12;;;;;;;20.35;12.70;;;8.50;27.00;;;;;;5105194;28;20062;-67
2021/11/18 10:55:48;;;;;;;23.17;13.70;;;8.60;26.00;;;;;;5104188;27;20137;-67
2021/11/18 10:58:34;;;;;;;18.98;13.02;;;8.70;26.30;;;;;;5103224;28;20539;-67
2021/11/18 11:01:05;;;;;;;17.25;12.32;;;8.70;25.40;;;;;;5102564;28;20227;-67
2021/11/18 11:03:40;;;;;;;18.38;11.20;;;8.60;25.30;;;;;;5101692;27;20105;-66
2021/11/18 11:06:10;;;;;;;;;;;8.60;24.10;;;;;;5103821;27;20131;-67
2021/11/18 11:08:41;;;;;;;26.13;16.55;;;8.60;24.40;;;;;;5081856;28;19927;-67
2021/11/18 11:11:29;;;;;;;19.35;12.13;;;8.80;22.80;;;;;;5081592;28;20535;-67
2021/11/18 11:14:40;;;;;;;20.63;12.07;;;8.70;22.40;;;;;;5076065;28;20044;-66
2021/11/18 11:17:43;;;;;;;16.60;11.80;;;8.60;23.40;;;;;;5084446;28;20090;-66
2021/11/18 11:20:17;;;;;;;20.20;12.48;;;8.60;24.40;;;;;;5086508;28;20119;-66
2021/11/18 11:22:54;;;;;;;24.30;13.60;;;8.80;24.70;;;;;;5078077;28;20044;-66
2021/11/18 11:26:11;;;;;;;16.98;12.35;;;9.10;23.90;;;;;;5080088;28;20044;-66
2021/11/18 11:28:53;;;;;;;19.40;11.77;;;9.10;19.40;;;;;;5080381;28;20123;-66
2021/11/18 11:31:37;;;;;;;15.38;10.35;;;8.80;20.90;;;;;;5082149;28;20040;-67
2021/11/18 11:34:19;;;;;;;14.90;9.95;;;8.70;19.40;;;;;;5077130;28;20043;-66
2021/11/18 11:36:58;;;;;;;15.02;8.98;;;8.70;21.50;;;;;;5082068;28;20040;-66
2021/11/18 11:39:34;;;;;;;16.45;9.25;;;8.60;22.80;;;;;;5083018;28;20093;-66
2021/11/18 11:42:43;;;;;;;15.15;10.07;;;8.50;22.10;;;;;;5059361;28;20114;-67
2021/11/18 11:45:22;;;;;;;18.15;10.90;;;8.50;22.80;;;;;;5070352;28;20048;-68
2021/11/18 11:48:20;;;;;;;15.00;9.83;;;8.60;21.90;;;;;;5082515;28;20051;-66
2021/11/18 11:51:18;;;;;;;24.60;14.98;;;8.70;23.30;;;;;;5081864;28;20131;-67
2021/11/18 11:54:12;;;;;;;16.85;9.10;;;8.70;21.00;;;;;;5080378;28;20036;-67
2021/11/18 11:56:42;;;;;;;20.35;10.73;;;8.70;21.90;;;;;;5039446;28;20047;-66
2021/11/18 11:59:16;;;;;;;15.07;10.13;;;9.00;22.10;;;;;;5079370;28;20049;-67
2021/11/18 12:01:55;;;;;;;13.18;8.70;;;9.00;19.20;;;;;;5081696;28;20044;-66
2021/11/18 12:04:33;;;;;;;13.52;9.23;;;9.00;18.70;;;;;;5080839;28;20047;-66
2021/11/18 12:07:07;;;;;;;15.02;9.60;;;9.00;18.80;;;;;;5083022;28;20109;-66
2021/11/18 12:09:45;;;;;;;16.42;10.68;;;8.70;17.80;;;;;;5084637;28;20442;-66
2021/11/18 12:12:26;;;;;;;14.63;9.60;;;8.80;18.70;;;;;;5086180;28;20063;-66
2021/11/18 12:15:01;;;;;;;12.55;8.10;;;9.00;18.70;;;;;;5084115;28;20482;-66
2021/11/18 12:17:36;;;;;;;14.88;8.40;;;8.80;18.60;;;;;;5084496;28;20052;-67
2021/11/18 12:20:08;;;;;;;13.97;8.93;;;9.00;18.70;;;;;;5088041;28;20123;-66
2021/11/18 12:22:55;;;;;;;23.20;13.57;;;9.10;18.70;;;;;;5069708;28;20052;-66
2021/11/18 12:25:41;;;;;;;18.67;11.55;;;8.90;16.90;;;;;;5078282;28;20516;-66
2021/11/18 12:28:24;;;;;;;;;;;8.90;17.90;;;;;;5081925;28;20043;-66
2021/11/18 12:31:16;;;;;;;18.80;10.43;;;8.90;17.70;;;;;;5088399;28;19923;-66
2021/11/18 12:33:55;;;;;;;17.83;11.57;;;8.90;17.90;;;;;;5083895;28;20050;-66
2021/11/18 12:37:04;;;;;;;13.18;8.40;;;8.90;17.20;;;;;;5081511;28;20068;-66
2021/11/18 12:39:48;;;;;;;14.88;8.85;;;8.70;19.50;;;;;;5084057;28;20442;-66
2021/11/18 12:42:33;;;;;;;11.85;8.45;;;8.80;18.50;;;;;;5086125;28;20052;-66
2021/11/18 12:45:20;;;;;;;14.18;9.15;;;8.60;17.80;;;;;;5082096;28;20131;-66
2021/11/18 12:48:09;;;;;;;14.68;9.40;;;8.50;18.70;;;;;;5080895;28;20128;-66
2021/11/18 12:50:49;;;;;;;13.77;8.32;;;8.70;18.40;;;;;;5086836;28;20060;-66
2021/11/18 12:53:35;;;;;;;15.75;9.55;;;8.70;18.50;;;;;;5084313;28;20241;-66
2021/11/18 12:56:18;;;;;;;24.92;14.18;;;8.70;18.50;;;;;;5081790;28;20050;-67
2021/11/18 12:58:53;;;;;;;17.58;11.30;;;8.70;17.00;;;;;;5087856;28;20071;-67
2021/11/18 13:01:58;;;;;;;14.05;7.88;;;8.70;18.20;;;;;;5083147;28;20036;-67
2021/11/18 13:04:43;;;;;;;12.20;8.50;;;8.50;18.30;;;;;;4992213;28;20368;-66
2021/11/18 13:07:34;;;;;;;18.73;10.90;;;8.50;18.30;;;;;;4996300;28;20183;-70
2021/11/18 13:10:27;;;;;;;15.95;9.43;;;8.60;18.10;;;;;;5062528;28;20187;-66
2021/11/18 13:13:34;;;;;;;16.70;8.90;;;8.70;17.30;;;;;;5083274;28;20496;-65
2021/11/18 13:16:29;;;;;;;14.23;7.55;;;8.60;17.90;;;;;;4995501;28;20497;-66